Time;durP1;ratioP1;P1;durP2;ratioP2;P2;SDS_P1;SDS_P2;PMS_P1;PMS_P2;Temp;Humidity;BMP_temperature;BMP_pressure;BME280_temperature;BME280_humidity;BME280_pressure;Samples;Min_cycle;Max_cycle;Signal;HPM_P1;HPM_P2
2022/08/26 00:00:10;;;;;;;;;;;;;;;;;;5074865;28;20347;-82
2022/08/26 00:02:36;;;;;;;;;;;;;;;;;;5093106;28;20017;-82
2022/08/26 00:05:01;;;;;;;;;;;;;;;;;;5074989;28;19916;-82
2022/08/26 00:07:26;;;;;;;;;;;;;;;;;;5074581;28;19923;-82
2022/08/26 00:09:51;;;;;;;;;;;;;;;;;;5074639;28;19927;-82
2022/08/26 00:12:17;;;;;;;;;;;;;;;;;;5092847;28;20371;-82
2022/08/26 00:14:42;;;;;;;;;;;;;;;;;;5074809;28;19919;-82
2022/08/26 00:17:08;;;;;;;;;;;;;;;;;;5092942;28;19926;-82
2022/08/26 00:19:33;;;;;;;;;;;;;;;;;;5074973;28;19916;-82
2022/08/26 00:21:58;;;;;;;;;;;;;;;;;;5057948;28;19917;-82
2022/08/26 00:24:23;;;;;;;;;;;;;;;;;;5075355;28;20378;-82
2022/08/26 00:26:49;;;;;;;;;;;;;;;;;;5092744;28;19913;-81
2022/08/26 00:29:14;;;;;;;;;;;;;;;;;;5057755;28;19912;-82
2022/08/26 00:31:39;;;;;;;;;;;;;;;;;;5093056;28;20016;-82
2022/08/26 00:34:05;;;;;;;;;;;;;;;;;;5093050;28;20409;-81
2022/08/26 00:36:30;;;;;;;;;;;;;;;;;;5074427;28;20370;-82
2022/08/26 00:38:56;;;;;;;;;;;;;;;;;;5074719;28;19938;-82
2022/08/26 00:41:21;;;;;;;;;;;;;;;;;;5092609;28;20024;-82
2022/08/26 00:43:47;;;;;;;;;;;;;;;;;;5092624;28;19922;-81
2022/08/26 00:46:13;;;;;;;;;;;;;;;;;;5093126;28;20431;-81
2022/08/26 00:48:38;;;;;;;;;;;;;;;;;;5074349;28;19912;-81
2022/08/26 00:51:14;;;;;;;;;;;;;;;;;;5057548;28;20366;-81
2022/08/26 00:53:45;;;;;;;;;;;;;;;;;;5076876;28;20048;-82
2022/08/26 00:56:28;;;;;;;;;;;;;;;;;;5078240;28;19912;-82
2022/08/26 00:58:54;;;;;;;;;;;;;;;;;;5077923;28;19916;-82
2022/08/26 01:01:19;;;;;;;;;;;;;;;;;;5061244;28;19912;-81
2022/08/26 01:03:45;;;;;;;;;;;;;;;;;;5077639;28;19981;-82
2022/08/26 01:06:10;;;;;;;;;;;;;;;;;;5096251;28;20007;-81
2022/08/26 01:08:36;;;;;;;;;;;;;;;;;;5078282;28;19938;-82
2022/08/26 01:11:01;;;;;;;;;;;;;;;;;;5078164;28;20257;-82
2022/08/26 01:13:28;;;;;;;;;;;;;;;;;;5077822;28;19986;-81
2022/08/26 01:15:54;;;;;;;;;;;;;;;;;;5077840;28;19916;-82
2022/08/26 01:18:19;;;;;;;;;;;;;;;;;;5077678;28;19912;-82
2022/08/26 01:21:06;;;;;;;;;;;;;;;;;;5077640;28;19920;-82
2022/08/26 01:23:37;;;;;;;;;;;;;;;;;;5077959;28;19933;-82
2022/08/26 01:26:04;;;;;;;;;;;;;;;;;;5077522;28;19970;-82
2022/08/26 01:28:30;;;;;;;;;;;;;;;;;;5077459;28;20320;-82
2022/08/26 01:30:56;;;;;;;;;;;;;;;;;;5077899;28;19950;-81
2022/08/26 01:33:24;;;;;;;;;;;;;;;;;;5065339;28;19924;-81
2022/08/26 01:35:49;;;;;;;;;;;;;;;;;;5077432;28;19912;-81
2022/08/26 01:38:14;;;;;;;;;;;;;;;;;;5077742;28;19923;-81
2022/08/26 01:40:41;;;;;;;;;;;;;;;;;;5095556;28;19912;-82
2022/08/26 01:43:07;;;;;;;;;;;;;;;;;;5076763;28;19951;-81
2022/08/26 01:45:32;;;;;;;;;;;;;;;;;;5069886;28;19928;-81
2022/08/26 01:47:58;;;;;;;;;;;;;;;;;;5060250;28;19912;-82
2022/08/26 01:50:31;;;;;;;;;;;;;;;;;;5077433;28;19965;-82
2022/08/26 01:52:57;;;;;;;;;;;;;;;;;;5076685;28;19920;-81
2022/08/26 01:55:23;;;;;;;;;;;;;;;;;;5077238;28;19912;-81
2022/08/26 01:57:48;;;;;;;;;;;;;;;;;;5060090;28;20290;-81
2022/08/26 02:00:14;;;;;;;;;;;;;;;;;;5076807;28;19998;-81
2022/08/26 02:02:40;;;;;;;;;;;;;;;;;;5060488;28;20056;-81
2022/08/26 02:05:06;;;;;;;;;;;;;;;;;;5093869;28;20370;-81
2022/08/26 02:07:32;;;;;;;;;;;;;;;;;;5059862;28;20128;-82
2022/08/26 02:09:57;;;;;;;;;;;;;;;;;;5060035;28;19922;-82
2022/08/26 02:12:23;;;;;;;;;;;;;;;;;;5059707;28;19916;-83
2022/08/26 02:14:50;;;;;;;;;;;;;;;;;;5094981;28;19921;-83
2022/08/26 02:17:21;;;;;;;;;;;;;;;;;;5076851;28;20286;-82
2022/08/26 02:19:47;;;;;;;;;;;;;;;;;;5076499;28;19912;-82
2022/08/26 02:22:14;;;;;;;;;;;;;;;;;;5076794;28;19919;-82
2022/08/26 02:24:50;;;;;;;;;;;;;;;;;;5076716;28;19951;-82
2022/08/26 02:27:16;;;;;;;;;;;;;;;;;;5076547;28;19916;-82
2022/08/26 02:29:46;;;;;;;;;;;;;;;;;;5059582;28;20006;-81
2022/08/26 02:32:12;;;;;;;;;;;;;;;;;;5059389;28;19916;-82
2022/08/26 02:34:38;;;;;;;;;;;;;;;;;;5059377;28;19961;-82
2022/08/26 02:37:04;;;;;;;;;;;;;;;;;;5076068;28;19916;-82
2022/08/26 02:39:30;;;;;;;;;;;;;;;;;;5076454;28;20491;-81
2022/08/26 02:41:55;;;;;;;;;;;;;;;;;;5094118;28;19916;-81
2022/08/26 02:44:21;;;;;;;;;;;;;;;;;;5075976;28;19962;-82
2022/08/26 02:46:46;;;;;;;;;;;;;;;;;;5094456;28;20393;-82
2022/08/26 02:49:11;;;;;;;;;;;;;;;;;;5059327;28;19916;-82
2022/08/26 02:51:37;;;;;;;;;;;;;;;;;;5094301;28;20238;-82
2022/08/26 02:54:03;;;;;;;;;;;;;;;;;;5076227;28;19966;-82
2022/08/26 02:56:29;;;;;;;;;;;;;;;;;;5059283;28;20366;-82
2022/08/26 02:58:55;;;;;;;;;;;;;;;;;;5076142;28;19965;-82
2022/08/26 03:01:25;;;;;;;;;;;;;;;;;;5075844;28;19912;-81
2022/08/26 03:03:50;;;;;;;;;;;;;;;;;;5076222;28;19919;-81
2022/08/26 03:06:16;;;;;;;;;;;;;;;;;;5076123;28;20342;-81
2022/08/26 03:08:41;;;;;;;;;;;;;;;;;;5075638;28;19920;-81
2022/08/26 03:11:06;;;;;;;;;;;;;;;;;;5093916;28;19916;-81
2022/08/26 03:13:31;;;;;;;;;;;;;;;;;;5076263;28;19941;-81
2022/08/26 03:15:59;;;;;;;;;;;;;;;;;;5093955;28;20461;-81
2022/08/26 03:18:24;;;;;;;;;;;;;;;;;;5058870;28;19916;-87
2022/08/26 03:20:49;;;;;;;;;;;;;;;;;;5058616;28;19912;-83
2022/08/26 03:23:14;;;;;;;;;;;;;;;;;;5093653;28;19996;-81
2022/08/26 03:25:40;;;;;;;;;;;;;;;;;;5075434;28;19919;-82
2022/08/26 03:28:05;;;;;;;;;;;;;;;;;;5075299;28;20398;-82
2022/08/26 03:30:39;;;;;;;;;;;;;;;;;;5075234;28;19916;-82
2022/08/26 03:33:05;;;;;;;;;;;;;;;;;;5093334;28;19920;-82
2022/08/26 03:35:31;;;;;;;;;;;;;;;;;;5093508;28;19939;-82
2022/08/26 03:37:56;;;;;;;;;;;;;;;;;;5058418;28;19962;-82
2022/08/26 03:40:22;;;;;;;;;;;;;;;;;;5075189;28;20025;-82
2022/08/26 03:42:47;;;;;;;;;;;;;;;;;;5075216;28;20003;-82
2022/08/26 03:45:13;;;;;;;;;;;;;;;;;;5075381;28;19927;-82
2022/08/26 03:47:38;;;;;;;;;;;;;;;;;;5075313;28;20282;-83
2022/08/26 03:50:05;;;;;;;;;;;;;;;;;;5075407;28;19923;-83
2022/08/26 03:52:30;;;;;;;;;;;;;;;;;;5071411;28;19921;-82
2022/08/26 03:54:55;;;;;;;;;;;;;;;;;;5071570;28;19967;-82
2022/08/26 03:57:20;;;;;;;;;;;;;;;;;;5073013;28;19916;-82
2022/08/26 03:59:46;;;;;;;;;;;;;;;;;;5072760;28;19916;-83
2022/08/26 04:02:11;;;;;;;;;;;;;;;;;;5053073;28;20282;-82
2022/08/26 04:04:36;;;;;;;;;;;;;;;;;;5064783;28;19917;-82
2022/08/26 04:07:02;;;;;;;;;;;;;;;;;;5074868;28;20379;-83
2022/08/26 04:09:27;;;;;;;;;;;;;;;;;;5073488;28;19960;-85
2022/08/26 04:11:52;;;;;;;;;;;;;;;;;;5072902;28;19960;-83
2022/08/26 04:14:19;;;;;;;;;;;;;;;;;;5073238;28;20310;-84
2022/08/26 04:16:45;;;;;;;;;;;;;;;;;;5049900;28;19948;-86
2022/08/26 04:19:11;;;;;;;;;;;;;;;;;;5071489;28;20402;-85
2022/08/26 04:21:40;;;;;;;;;;;;;;;;;;5064702;28;19912;-85
2022/08/26 04:24:05;;;;;;;;;;;;;;;;;;5071550;28;19959;-85
2022/08/26 04:26:35;;;;;;;;;;;;;;;;;;5063942;28;19916;-85
2022/08/26 04:29:01;;;;;;;;;;;;;;;;;;5075356;28;20404;-86
2022/08/26 04:31:26;;;;;;;;;;;;;;;;;;5059285;28;19976;-84
2022/08/26 04:33:55;;;;;;;;;;;;;;;;;;5082336;28;19924;-84
2022/08/26 04:36:22;;;;;;;;;;;;;;;;;;5082820;28;19913;-85
2022/08/26 04:38:49;;;;;;;;;;;;;;;;;;5054762;28;19920;-82
2022/08/26 04:41:14;;;;;;;;;;;;;;;;;;5076482;28;20366;-82
2022/08/26 04:43:40;;;;;;;;;;;;;;;;;;5070058;28;19920;-83
2022/08/26 04:46:06;;;;;;;;;;;;;;;;;;5082125;28;19938;-84
2022/08/26 04:48:32;;;;;;;;;;;;;;;;;;5053815;28;19912;-85
2022/08/26 04:51:00;;;;;;;;;;;;;;;;;;5077421;28;20363;-83
2022/08/26 04:53:25;;;;;;;;;;;;;;;;;;5088297;28;19970;-85
2022/08/26 04:55:51;;;;;;;;;;;;;;;;;;5079012;28;19951;-82
2022/08/26 04:58:16;;;;;;;;;;;;;;;;;;5078517;28;20212;-82
2022/08/26 05:00:42;;;;;;;;;;;;;;;;;;5096374;28;19916;-83
2022/08/26 05:03:08;;;;;;;;;;;;;;;;;;5097428;28;19919;-83
2022/08/26 05:05:33;;;;;;;;;;;;;;;;;;5081538;28;19920;-82
2022/08/26 05:07:58;;;;;;;;;;;;;;;;;;5066499;28;19916;-83
2022/08/26 05:10:23;;;;;;;;;;;;;;;;;;5080869;28;20337;-82
2022/08/26 05:12:49;;;;;;;;;;;;;;;;;;5063496;28;19942;-81
2022/08/26 05:15:14;;;;;;;;;;;;;;;;;;5079272;28;19916;-81
2022/08/26 05:17:39;;;;;;;;;;;;;;;;;;5061682;28;19920;-82
2022/08/26 05:20:05;;;;;;;;;;;;;;;;;;5077980;28;19916;-81
2022/08/26 05:22:30;;;;;;;;;;;;;;;;;;5077675;28;19920;-80
2022/08/26 05:24:56;;;;;;;;;;;;;;;;;;5078159;28;19912;-81
2022/08/26 05:27:21;;;;;;;;;;;;;;;;;;5080354;28;19920;-80
2022/08/26 05:29:47;;;;;;;;;;;;;;;;;;5080888;28;19931;-81
2022/08/26 05:32:12;;;;;;;;;;;;;;;;;;5098154;28;20011;-80
2022/08/26 05:34:37;;;;;;;;;;;;;;;;;;5078571;28;19912;-79
2022/08/26 05:37:04;;;;;;;;;;;;;;;;;;5095603;28;19963;-81
2022/08/26 05:39:31;;;;;;;;;;;;;;;;;;5077683;28;19916;-80
2022/08/26 05:41:56;;;;;;;;;;;;;;;;;;5077348;28;19925;-80
2022/08/26 05:44:21;;;;;;;;;;;;;;;;;;5095758;28;20002;-81
2022/08/26 05:46:46;;;;;;;;;;;;;;;;;;5094908;28;19969;-81
2022/08/26 05:49:12;;;;;;;;;;;;;;;;;;5095123;28;20017;-81
2022/08/26 05:51:38;;;;;;;;;;;;;;;;;;5094739;28;19969;-81
2022/08/26 05:54:04;;;;;;;;;;;;;;;;;;5059947;28;20043;-81
2022/08/26 05:56:29;;;;;;;;;;;;;;;;;;5077157;28;19912;-80
2022/08/26 05:58:55;;;;;;;;;;;;;;;;;;5059744;28;19912;-80
2022/08/26 06:01:21;;;;;;;;;;;;;;;;;;5059864;28;19912;-79
2022/08/26 06:03:50;;;;;;;;;;;;;;;;;;5076628;28;19912;-80
2022/08/26 06:06:17;;;;;;;;;;;;;;;;;;5077021;28;19922;-82
2022/08/26 06:08:42;;;;;;;;;;;;;;;;;;5076804;28;19912;-82
2022/08/26 06:11:09;;;;;;;;;;;;;;;;;;5076744;28;19912;-82
2022/08/26 06:13:35;;;;;;;;;;;;;;;;;;5076782;28;19924;-80
2022/08/26 06:16:02;;;;;;;;;;;;;;;;;;5077856;28;19965;-82
2022/08/26 06:18:33;;;;;;;;;;;;;;;;;;5076862;28;19919;-82
2022/08/26 06:20:59;;;;;;;;;;;;;;;;;;5076371;28;19912;-81
2022/08/26 06:26:09;;;;;;;;;;;;;;;;;;5079144;28;20041;-81
2022/08/26 06:28:35;;;;;;;;;;;;;;;;;;5059613;28;20011;-82
2022/08/26 06:31:00;;;;;;;;;;;;;;;;;;5076401;28;19916;-81
2022/08/26 06:33:27;;;;;;;;;;;;;;;;;;5059369;28;19951;-82
2022/08/26 06:35:53;;;;;;;;;;;;;;;;;;5076591;28;20030;-81
2022/08/26 06:38:18;;;;;;;;;;;;;;;;;;5094786;28;19995;-81
2022/08/26 06:40:44;;;;;;;;;;;;;;;;;;5095185;28;19924;-80
2022/08/26 06:43:10;;;;;;;;;;;;;;;;;;5074704;28;19995;-82
2022/08/26 06:45:35;;;;;;;;;;;;;;;;;;5069465;28;20000;-81
2022/08/26 06:48:01;;;;;;;;;;;;;;;;;;5076159;28;20403;-80
2022/08/26 06:50:26;;;;;;;;;;;;;;;;;;5050224;28;19917;-80
2022/08/26 06:52:52;;;;;;;;;;;;;;;;;;5075772;28;19932;-82
2022/08/26 06:55:18;;;;;;;;;;;;;;;;;;5094483;28;20224;-83
2022/08/26 06:57:43;;;;;;;;;;;;;;;;;;5075998;28;19926;-82
2022/08/26 07:00:11;;;;;;;;;;;;;;;;;;5075839;28;19916;-82
2022/08/26 07:02:36;;;;;;;;;;;;;;;;;;5076171;28;20003;-82
2022/08/26 07:05:02;;;;;;;;;;;;;;;;;;5075727;28;20335;-82
2022/08/26 07:07:28;;;;;;;;;;;;;;;;;;5075834;28;19912;-82
2022/08/26 07:09:53;;;;;;;;;;;;;;;;;;5076022;28;19916;-82
2022/08/26 07:12:19;;;;;;;;;;;;;;;;;;5075801;28;19916;-82
2022/08/26 07:14:44;;;;;;;;;;;;;;;;;;5059296;28;19927;-82
2022/08/26 07:17:09;;;;;;;;;;;;;;;;;;5094023;28;19919;-82
2022/08/26 07:19:35;;;;;;;;;;;;;;;;;;5075721;28;19923;-82
2022/08/26 07:22:01;;;;;;;;;;;;;;;;;;5094075;28;19916;-82
2022/08/26 07:24:27;;;;;;;;;;;;;;;;;;5075679;28;19912;-82
2022/08/26 07:26:52;;;;;;;;;;;;;;;;;;5093954;28;20351;-82
2022/08/26 07:29:17;;;;;;;;;;;;;;;;;;5075379;28;20346;-81
2022/08/26 07:31:44;;;;;;;;;;;;;;;;;;5093581;28;19928;-82
2022/08/26 07:34:10;;;;;;;;;;;;;;;;;;5075724;28;19947;-81
2022/08/26 07:36:35;;;;;;;;;;;;;;;;;;5093593;28;19916;-82
2022/08/26 07:39:00;;;;;;;;;;;;;;;;;;5093616;28;20353;-82
2022/08/26 07:41:25;;;;;;;;;;;;;;;;;;5096546;28;19916;-81
2022/08/26 07:43:51;;;;;;;;;;;;;;;;;;5075828;28;20375;-82
2022/08/26 07:46:20;;;;;;;;;;;;;;;;;;5075540;28;20378;-82
2022/08/26 07:48:45;;;;;;;;;;;;;;;;;;5093325;28;19912;-82
2022/08/26 07:51:11;;;;;;;;;;;;;;;;;;5075705;28;20243;-82
2022/08/26 07:53:36;;;;;;;;;;;;;;;;;;5075074;28;19924;-82
2022/08/26 07:56:02;;;;;;;;;;;;;;;;;;5058281;28;19912;-82
2022/08/26 07:58:27;;;;;;;;;;;;;;;;;;5075541;28;19912;-81
2022/08/26 08:00:53;;;;;;;;;;;;;;;;;;5075275;28;20007;-81
2022/08/26 08:03:19;;;;;;;;;;;;;;;;;;5095602;28;19922;-81
2022/08/26 08:05:44;;;;;;;;;;;;;;;;;;5062591;28;20009;-81
2022/08/26 08:08:09;;;;;;;;;;;;;;;;;;5079610;28;19912;-81
2022/08/26 08:10:35;;;;;;;;;;;;;;;;;;5079730;28;19916;-81
2022/08/26 08:13:01;;;;;;;;;;;;;;;;;;5062162;28;19916;-81
2022/08/26 08:15:28;;;;;;;;;;;;;;;;;;5079040;28;20323;-81
2022/08/26 08:17:54;;;;;;;;;;;;;;;;;;5079496;28;19916;-81
2022/08/26 08:20:19;;;;;;;;;;;;;;;;;;5079180;28;20049;-82
2022/08/26 08:22:45;;;;;;;;;;;;;;;;;;5062217;28;20011;-80
2022/08/26 08:25:10;;;;;;;;;;;;;;;;;;5078861;28;20332;-81
2022/08/26 08:27:36;;;;;;;;;;;;;;;;;;5062147;28;20002;-81
2022/08/26 08:30:02;;;;;;;;;;;;;;;;;;5079277;28;19965;-80
2022/08/26 08:32:28;;;;;;;;;;;;;;;;;;5062158;28;19927;-81
2022/08/26 08:34:53;;;;;;;;;;;;;;;;;;5062041;28;19945;-81
2022/08/26 08:37:19;;;;;;;;;;;;;;;;;;5078696;28;19920;-81
2022/08/26 08:39:44;;;;;;;;;;;;;;;;;;5096898;28;20358;-81
2022/08/26 08:42:20;;;;;;;;;;;;;;;;;;5078854;28;19912;-82
2022/08/26 08:44:45;;;;;;;;;;;;;;;;;;5079190;28;19920;-81
2022/08/26 08:47:17;;;;;;;;;;;;;;;;;;5078562;28;20015;-81
2022/08/26 08:49:42;;;;;;;;;;;;;;;;;;5061451;28;19926;-81
2022/08/26 08:52:19;;;;;;;;;;;;;;;;;;5096214;28;19924;-81
2022/08/26 08:54:45;;;;;;;;;;;;;;;;;;5078227;28;19918;-81
2022/08/26 08:57:11;;;;;;;;;;;;;;;;;;5078021;28;19916;-82
2022/08/26 08:59:40;;;;;;;;;;;;;;;;;;5078475;28;19918;-81
2022/08/26 09:02:17;;;;;;;;;;;;;;;;;;5062127;28;19920;-81
2022/08/26 09:04:53;;;;;;;;;;;;;;;;;;5078193;28;19962;-81
2022/08/26 09:07:22;;;;;;;;;;;;;;;;;;5078314;28;19912;-80
2022/08/26 09:09:58;;;;;;;;;;;;;;;;;;5077986;28;20362;-81
2022/08/26 09:12:25;;;;;;;;;;;;;;;;;;5077945;28;19932;-81
2022/08/26 09:14:51;;;;;;;;;;;;;;;;;;5060725;28;19920;-81
2022/08/26 09:17:16;;;;;;;;;;;;;;;;;;5077535;28;19912;-81
2022/08/26 09:19:51;;;;;;;;;;;;;;;;;;5095866;28;19912;-82
2022/08/26 09:22:27;;;;;;;;;;;;;;;;;;5077965;28;19919;-81
2022/08/26 09:24:53;;;;;;;;;;;;;;;;;;5060900;28;19912;-81
2022/08/26 09:27:37;;;;;;;;;;;;;;;;;;5077487;28;19916;-81
2022/08/26 09:30:03;;;;;;;;;;;;;;;;;;5095792;28;19938;-82
2022/08/26 09:32:29;;;;;;;;;;;;;;;;;;5060758;28;19916;-82
2022/08/26 09:35:02;;;;;;;;;;;;;;;;;;5077240;28;20366;-81
2022/08/26 09:37:34;;;;;;;;;;;;;;;;;;5077703;28;19912;-82
2022/08/26 09:40:14;;;;;;;;;;;;;;;;;;5077524;28;19918;-82
2022/08/26 09:42:40;;;;;;;;;;;;;;;;;;5095609;28;19913;-81
2022/08/26 09:45:09;;;;;;;;;;;;;;;;;;5077816;28;19995;-81
2022/08/26 09:47:37;;;;;;;;;;;;;;;;;;5078171;28;19920;-81
2022/08/26 09:50:18;;;;;;;;;;;;;;;;;;5078009;28;19956;-82
2022/08/26 09:52:43;;;;;;;;;;;;;;;;;;5095941;28;19927;-81
2022/08/26 09:55:08;;;;;;;;;;;;;;;;;;5096234;28;20358;-81
2022/08/26 09:57:54;;;;;;;;;;;;;;;;;;5077730;28;20315;-82
2022/08/26 10:00:25;;;;;;;;;;;;;;;;;;5095308;28;19960;-85
2022/08/26 10:02:50;;;;;;;;;;;;;;;;;;5097541;28;19912;-85
2022/08/26 10:05:17;;;;;;;;;;;;;;;;;;5083331;28;20259;-83
2022/08/26 10:07:47;;;;;;;;;;;;;;;;;;5065082;28;19935;-83
2022/08/26 10:10:15;;;;;;;;;;;;;;;;;;5064441;28;20008;-83
2022/08/26 10:12:43;;;;;;;;;;;;;;;;;;5082555;28;19920;-82
2022/08/26 10:15:09;;;;;;;;;;;;;;;;;;5080540;28;19920;-82
2022/08/26 10:17:42;;;;;;;;;;;;;;;;;;5061735;28;19916;-83
2022/08/26 10:20:09;;;;;;;;;;;;;;;;;;5060785;28;19944;-82
2022/08/26 10:22:53;;;;;;;;;;;;;;;;;;5077420;28;19915;-83
2022/08/26 10:25:24;;;;;;;;;;;;;;;;;;5075941;28;19912;-81
2022/08/26 10:27:59;;;;;;;;;;;;;;;;;;5060991;28;19999;-82
2022/08/26 10:30:28;;;;;;;;;;;;;;;;;;5095400;28;19944;-82
2022/08/26 10:33:01;;;;;;;;;;;;;;;;;;5094879;28;20297;-82
2022/08/26 10:35:26;;;;;;;;;;;;;;;;;;5059707;28;20003;-82
2022/08/26 10:37:53;;;;;;;;;;;;;;;;;;5076995;28;19970;-82
2022/08/26 10:40:24;;;;;;;;;;;;;;;;;;5076663;28;20019;-82
2022/08/26 10:42:49;;;;;;;;;;;;;;;;;;5096798;28;19962;-82
2022/08/26 10:45:20;;;;;;;;;;;;;;;;;;5076295;28;20255;-81
2022/08/26 10:47:51;;;;;;;;;;;;;;;;;;5076764;28;20226;-81
2022/08/26 10:50:16;;;;;;;;;;;;;;;;;;5075931;28;19913;-80
2022/08/26 10:52:57;;;;;;;;;;;;;;;;;;5074593;28;19947;-79
2022/08/26 10:55:45;;;;;;;;;;;;;;;;;;5093128;28;19935;-79
2022/08/26 10:58:27;;;;;;;;;;;;;;;;;;5084586;28;19923;-80
2022/08/26 11:04:17;;;;;;;;;;;;;;;;;;5092832;28;20341;-80
2022/08/26 11:06:44;;;;;;;;;;;;;;;;;;5053873;28;19951;-80
2022/08/26 11:09:10;;;;;;;;;;;;;;;;;;5075349;28;20020;-80
2022/08/26 11:11:35;;;;;;;;;;;;;;;;;;5058159;28;19941;-80
2022/08/26 11:14:02;;;;;;;;;;;;;;;;;;5075152;28;19916;-80
2022/08/26 11:16:32;;;;;;;;;;;;;;;;;;5058605;28;20282;-81
2022/08/26 11:18:57;;;;;;;;;;;;;;;;;;5058151;28;20003;-81
2022/08/26 11:21:43;;;;;;;;;;;;;;;;;;5058254;28;19955;-81
2022/08/26 11:24:09;;;;;;;;;;;;;;;;;;5058091;28;19981;-81
2022/08/26 11:26:34;;;;;;;;;;;;;;;;;;5074622;28;19916;-81
2022/08/26 11:29:00;;;;;;;;;;;;;;;;;;5058284;28;19938;-80
2022/08/26 11:31:25;;;;;;;;;;;;;;;;;;5057758;28;19969;-81
2022/08/26 11:34:00;;;;;;;;;;;;;;;;;;5092192;28;19911;-81
2022/08/26 11:36:36;;;;;;;;;;;;;;;;;;5074386;28;19912;-81
2022/08/26 11:39:02;;;;;;;;;;;;;;;;;;5092897;28;19965;-81
2022/08/26 11:41:28;;;;;;;;;;;;;;;;;;5075406;28;19912;-82
2022/08/26 11:43:54;;;;;;;;;;;;;;;;;;5094211;28;19920;-83
2022/08/26 11:46:24;;;;;;;;;;;;;;;;;;5075090;28;19927;-83
2022/08/26 11:48:49;;;;;;;;;;;;;;;;;;5092255;28;20272;-80
2022/08/26 11:51:14;;;;;;;;;;;;;;;;;;5085194;28;19943;-84
2022/08/26 11:53:41;;;;;;;;;;;;;;;;;;5074343;28;19920;-81
2022/08/26 11:56:08;;;;;;;;;;;;;;;;;;5057470;28;19912;-81
2022/08/26 11:58:34;;;;;;;;;;;;;;;;;;5057548;28;19912;-81
2022/08/26 12:01:06;;;;;;;;;;;;;;;;;;5074409;28;19912;-81
2022/08/26 12:03:38;;;;;;;;;;;;;;;;;;5057574;28;19944;-81
2022/08/26 12:06:11;;;;;;;;;;;;;;;;;;5057311;28;19916;-82
2022/08/26 12:08:36;;;;;;;;;;;;;;;;;;5057465;28;19939;-81
2022/08/26 12:11:07;;;;;;;;;;;;;;;;;;5073972;28;20374;-81
2022/08/26 12:13:34;;;;;;;;;;;;;;;;;;5057897;28;20432;-79
2022/08/26 12:15:59;;;;;;;;;;;;;;;;;;5058554;28;19912;-80
2022/08/26 12:18:27;;;;;;;;;;;;;;;;;;5074301;28;19918;-81
2022/08/26 12:20:54;;;;;;;;;;;;;;;;;;5074330;28;19912;-81
2022/08/26 12:23:39;;;;;;;;;;;;;;;;;;5074206;28;19917;-84
2022/08/26 12:26:09;;;;;;;;;;;;;;;;;;5074270;28;19916;-80
2022/08/26 12:28:42;;;;;;;;;;;;;;;;;;5051445;28;19912;-81
2022/08/26 12:31:07;;;;;;;;;;;;;;;;;;5055007;28;19959;-81
2022/08/26 12:33:34;;;;;;;;;;;;;;;;;;5072099;28;19990;-81
2022/08/26 12:36:00;;;;;;;;;;;;;;;;;;5075329;28;20019;-80
2022/08/26 12:38:26;;;;;;;;;;;;;;;;;;5057440;28;19916;-80
2022/08/26 12:40:51;;;;;;;;;;;;;;;;;;5074230;28;19919;-81
2022/08/26 12:43:40;;;;;;;;;;;;;;;;;;5057556;28;19973;-80
2022/08/26 12:46:07;;;;;;;;;;;;;;;;;;5074096;28;19912;-81
2022/08/26 12:48:34;;;;;;;;;;;;;;;;;;5068380;28;19919;-81
2022/08/26 12:51:00;;;;;;;;;;;;;;;;;;5062204;28;20003;-80
2022/08/26 12:53:26;;;;;;;;;;;;;;;;;;5079369;28;20000;-80
2022/08/26 12:55:52;;;;;;;;;;;;;;;;;;5097464;28;20371;-78
2022/08/26 12:58:31;;;;;;;;;;;;;;;;;;5080114;28;19932;-81
2022/08/26 13:00:58;;;;;;;;;;;;;;;;;;5061732;28;19919;-81
2022/08/26 13:03:32;;;;;;;;;;;;;;;;;;5078185;28;19912;-79
2022/08/26 13:06:16;;;;;;;;;;;;;;;;;;5080216;28;19913;-79
2022/08/26 13:08:45;;;;;;;;;;;;;;;;;;5087392;28;19923;-79
2022/08/26 13:11:18;;;;;;;;;;;;;;;;;;5084443;28;19992;-78
2022/08/26 13:13:44;;;;;;;;;;;;;;;;;;5078980;28;20020;-80
2022/08/26 13:16:10;;;;;;;;;;;;;;;;;;5063048;28;19952;-80
2022/08/26 13:18:35;;;;;;;;;;;;;;;;;;5061053;28;20370;-78
2022/08/26 13:21:06;;;;;;;;;;;;;;;;;;5055650;28;19912;-80
2022/08/26 13:23:32;;;;;;;;;;;;;;;;;;5062784;28;19966;-81
2022/08/26 13:25:58;;;;;;;;;;;;;;;;;;5054120;28;19912;-82
2022/08/26 13:28:23;;;;;;;;;;;;;;;;;;5065965;28;19923;-82
2022/08/26 13:30:49;;;;;;;;;;;;;;;;;;5048573;28;20294;-81
2022/08/26 13:33:17;;;;;;;;;;;;;;;;;;5067492;28;19920;-81
2022/08/26 13:35:42;;;;;;;;;;;;;;;;;;5065972;28;19916;-81
2022/08/26 13:38:13;;;;;;;;;;;;;;;;;;5047926;28;19928;-82
2022/08/26 13:40:42;;;;;;;;;;;;;;;;;;5064564;28;19955;-79
2022/08/26 13:43:07;;;;;;;;;;;;;;;;;;5064433;28;19995;-81
2022/08/26 13:45:32;;;;;;;;;;;;;;;;;;5048750;28;19970;-80
2022/08/26 13:47:59;;;;;;;;;;;;;;;;;;5085049;28;19920;-84
2022/08/26 13:50:24;;;;;;;;;;;;;;;;;;5049813;28;20018;-83
2022/08/26 13:52:49;;;;;;;;;;;;;;;;;;5063031;28;19925;-83
2022/08/26 13:55:15;;;;;;;;;;;;;;;;;;5047238;28;19923;-82
2022/08/26 13:57:40;;;;;;;;;;;;;;;;;;5047560;28;20086;-81
2022/08/26 14:00:06;;;;;;;;;;;;;;;;;;5060327;28;19963;-79
2022/08/26 14:02:31;;;;;;;;;;;;;;;;;;5060330;28;19927;-81
2022/08/26 14:04:57;;;;;;;;;;;;;;;;;;5075888;28;19966;-78
2022/08/26 14:07:22;;;;;;;;;;;;;;;;;;5076595;28;19917;-78
2022/08/26 14:09:48;;;;;;;;;;;;;;;;;;5043876;28;19926;-81
2022/08/26 14:12:13;;;;;;;;;;;;;;;;;;5077932;28;20328;-78
2022/08/26 14:14:38;;;;;;;;;;;;;;;;;;5058954;28;19928;-79
2022/08/26 14:17:03;;;;;;;;;;;;;;;;;;5041444;28;20391;-79
2022/08/26 14:19:29;;;;;;;;;;;;;;;;;;5062716;28;20383;-78
2022/08/26 14:21:54;;;;;;;;;;;;;;;;;;5046443;28;19923;-78
2022/08/26 14:24:20;;;;;;;;;;;;;;;;;;5081590;28;19939;-78
2022/08/26 14:26:47;;;;;;;;;;;;;;;;;;5077657;28;19912;-79
2022/08/26 14:29:12;;;;;;;;;;;;;;;;;;5041343;28;19991;-79
2022/08/26 14:31:37;;;;;;;;;;;;;;;;;;5041879;28;19955;-79
2022/08/26 14:34:04;;;;;;;;;;;;;;;;;;5058449;28;19923;-78
2022/08/26 14:36:32;;;;;;;;;;;;;;;;;;5041318;28;19913;-78
2022/08/26 14:39:04;;;;;;;;;;;;;;;;;;5057236;28;19920;-81
2022/08/26 14:41:30;;;;;;;;;;;;;;;;;;5076393;28;20008;-80
2022/08/26 14:44:05;;;;;;;;;;;;;;;;;;5076055;28;20479;-80
2022/08/26 14:46:32;;;;;;;;;;;;;;;;;;5057863;28;19913;-80
2022/08/26 14:48:59;;;;;;;;;;;;;;;;;;5042149;28;19920;-80
2022/08/26 14:51:24;;;;;;;;;;;;;;;;;;5058496;28;19920;-79
2022/08/26 14:56:34;;;;;;;;;;;;;;;;;;5054664;28;20046;-80
2022/08/26 14:59:00;;;;;;;;;;;;;;;;;;5051189;28;20402;-81
2022/08/26 15:01:25;;;;;;;;;;;;;;;;;;5056033;28;19916;-80
2022/08/26 15:03:51;;;;;;;;;;;;;;;;;;5056784;28;19920;-80
2022/08/26 15:06:17;;;;;;;;;;;;;;;;;;5039495;28;19966;-80
2022/08/26 15:08:42;;;;;;;;;;;;;;;;;;5033406;28;19916;-80
2022/08/26 15:11:07;;;;;;;;;;;;;;;;;;5053195;28;19924;-81
2022/08/26 15:13:33;;;;;;;;;;;;;;;;;;5047186;28;19927;-80
2022/08/26 15:15:58;;;;;;;;;;;;;;;;;;5038631;28;19973;-80
2022/08/26 15:18:23;;;;;;;;;;;;;;;;;;5056796;28;20287;-81
2022/08/26 15:20:49;;;;;;;;;;;;;;;;;;5050556;28;19916;-80
2022/08/26 15:23:14;;;;;;;;;;;;;;;;;;5055147;28;20008;-80
2022/08/26 15:25:41;;;;;;;;;;;;;;;;;;5032652;28;19959;-80
2022/08/26 15:28:06;;;;;;;;;;;;;;;;;;5057622;28;19913;-80
2022/08/26 15:30:32;;;;;;;;;;;;;;;;;;5031801;28;20375;-80
2022/08/26 15:32:57;;;;;;;;;;;;;;;;;;5039082;28;20506;-82
2022/08/26 15:35:23;;;;;;;;;;;;;;;;;;5039869;28;19917;-80
2022/08/26 15:37:48;;;;;;;;;;;;;;;;;;5056972;28;20078;-81
2022/08/26 15:40:14;;;;;;;;;;;;;;;;;;5057269;28;19920;-81
2022/08/26 15:42:39;;;;;;;;;;;;;;;;;;5048099;28;20356;-80
2022/08/26 15:45:04;;;;;;;;;;;;;;;;;;5053495;28;19917;-78
2022/08/26 15:47:30;;;;;;;;;;;;;;;;;;5030336;28;20015;-79
2022/08/26 15:49:55;;;;;;;;;;;;;;;;;;5037844;28;19978;-79
2022/08/26 15:52:20;;;;;;;;;;;;;;;;;;5056329;28;20020;-80
2022/08/26 15:54:45;;;;;;;;;;;;;;;;;;5056151;28;19965;-79
2022/08/26 15:57:11;;;;;;;;;;;;;;;;;;5075961;28;19917;-80
2022/08/26 15:59:36;;;;;;;;;;;;;;;;;;5041753;28;20464;-81
2022/08/26 16:02:01;;;;;;;;;;;;;;;;;;5058418;28;20003;-78
2022/08/26 16:04:27;;;;;;;;;;;;;;;;;;5057273;28;19928;-82
2022/08/26 16:06:52;;;;;;;;;;;;;;;;;;5074229;28;20028;-79
2022/08/26 16:09:19;;;;;;;;;;;;;;;;;;5056516;28;19938;-82
2022/08/26 16:11:44;;;;;;;;;;;;;;;;;;5058201;28;19916;-80
2022/08/26 16:14:09;;;;;;;;;;;;;;;;;;5056946;28;19921;-82
2022/08/26 16:16:38;;;;;;;;;;;;;;;;;;5073698;28;20007;-81
2022/08/26 16:19:03;;;;;;;;;;;;;;;;;;5055277;28;19912;-81
2022/08/26 16:21:29;;;;;;;;;;;;;;;;;;5073457;28;20007;-80
2022/08/26 16:23:54;;;;;;;;;;;;;;;;;;5074483;28;19917;-82
2022/08/26 16:26:21;;;;;;;;;;;;;;;;;;5059163;28;20432;-81
2022/08/26 16:28:47;;;;;;;;;;;;;;;;;;5059677;28;20290;-81
2022/08/26 16:31:12;;;;;;;;;;;;;;;;;;5060018;28;19928;-82
2022/08/26 16:33:38;;;;;;;;;;;;;;;;;;5060628;28;19920;-80
2022/08/26 16:36:04;;;;;;;;;;;;;;;;;;5078197;28;19920;-80
2022/08/26 16:38:29;;;;;;;;;;;;;;;;;;5061746;28;20003;-81
2022/08/26 16:40:54;;;;;;;;;;;;;;;;;;5062491;28;19948;-81
2022/08/26 16:43:25;;;;;;;;;;;;;;;;;;5060733;28;19955;-79
2022/08/26 16:45:50;;;;;;;;;;;;;;;;;;5038129;28;19916;-81
2022/08/26 16:48:15;;;;;;;;;;;;;;;;;;5043315;28;19966;-78
2022/08/26 16:50:40;;;;;;;;;;;;;;;;;;5079020;28;20355;-79
2022/08/26 16:53:06;;;;;;;;;;;;;;;;;;5078430;28;19931;-80